createdAt,value
2023-11-22T00:01:39.830Z,2.00
2023-11-22T00:04:08.118Z,2.00
2023-11-22T00:06:38.208Z,2.17
2023-11-22T00:09:08.290Z,2.10
2023-11-22T00:11:36.323Z,2.27
2023-11-22T00:14:04.426Z,2.40
2023-11-22T00:16:33.060Z,2.20
2023-11-22T00:19:01.221Z,2.23
2023-11-22T00:21:30.596Z,2.60
2023-11-22T00:23:59.971Z,2.30
2023-11-22T00:26:27.967Z,2.40
2023-11-22T00:28:56.032Z,2.80
2023-11-22T00:31:24.702Z,2.40
2023-11-22T00:33:52.780Z,2.20
2023-11-22T00:36:20.906Z,2.33
2023-11-22T00:38:48.938Z,2.03
2023-11-22T00:41:18.317Z,2.30
2023-11-22T00:43:46.336Z,2.47
2023-11-22T00:46:14.348Z,2.20
2023-11-22T00:48:42.923Z,2.27
2023-11-22T00:51:12.055Z,2.43
2023-11-22T00:53:40.055Z,2.30
2023-11-22T00:56:08.856Z,2.40
2023-11-22T00:58:38.299Z,2.73
2023-11-22T01:01:06.605Z,2.90
2023-11-22T01:03:34.683Z,2.50
2023-11-22T01:06:02.741Z,2.73
2023-11-22T01:08:31.566Z,2.83
2023-11-22T01:11:01.138Z,2.60
2023-11-22T01:13:29.281Z,2.43
2023-11-22T01:15:58.682Z,2.30
2023-11-22T01:18:26.881Z,2.20
2023-11-22T01:20:54.932Z,2.17
2023-11-22T01:23:23.061Z,2.43
2023-11-22T01:25:51.341Z,2.30
2023-11-22T01:28:19.315Z,2.20
2023-11-22T01:30:48.034Z,2.30
2023-11-22T01:33:17.580Z,2.33
2023-11-22T01:35:45.617Z,2.43
2023-11-22T01:38:13.710Z,2.27
2023-11-22T01:40:46.840Z,2.53
2023-11-22T01:43:17.621Z,2.40
2023-11-22T01:45:45.733Z,2.50
2023-11-22T01:48:14.577Z,2.60
2023-11-22T01:50:45.001Z,2.20
2023-11-22T01:53:14.449Z,2.00
2023-11-22T01:55:42.773Z,2.40
2023-11-22T01:58:10.803Z,2.10
2023-11-22T02:00:46.306Z,2.30
2023-11-22T02:03:14.477Z,2.30
2023-11-22T02:05:44.751Z,2.50
2023-11-22T02:08:13.206Z,2.23
2023-11-22T02:10:43.073Z,2.83
2023-11-22T02:13:11.288Z,2.80
2023-11-22T02:15:40.094Z,3.00
2023-11-22T02:18:13.297Z,2.70
2023-11-22T02:20:44.252Z,2.47
2023-11-22T02:23:13.669Z,2.70
2023-11-22T02:25:41.756Z,2.73
2023-11-22T02:28:10.197Z,2.47
2023-11-22T02:30:38.263Z,2.33
2023-11-22T02:33:06.964Z,2.70
2023-11-22T02:35:35.106Z,2.63
2023-11-22T02:38:03.582Z,2.70
2023-11-22T02:40:33.367Z,2.30
2023-11-22T02:43:06.438Z,2.53
2023-11-22T02:45:34.623Z,2.57
2023-11-22T02:48:04.614Z,3.23
2023-11-22T02:50:33.102Z,2.70
2023-11-22T02:53:01.189Z,2.60
2023-11-22T02:55:30.039Z,2.80
2023-11-22T02:57:59.399Z,2.83
2023-11-22T03:00:27.419Z,3.10
2023-11-22T03:02:57.293Z,2.97
2023-11-22T03:05:25.847Z,3.00
2023-11-22T03:07:54.022Z,3.00
2023-11-22T03:10:22.020Z,3.30
2023-11-22T03:12:50.058Z,3.17
2023-11-22T03:15:19.511Z,3.27
2023-11-22T03:17:49.710Z,3.37
2023-11-22T03:20:18.308Z,3.30
2023-11-22T03:22:46.419Z,2.80
2023-11-22T03:25:15.276Z,3.57
2023-11-22T03:27:43.342Z,3.30
2023-11-22T03:30:13.317Z,2.90
2023-11-22T03:32:43.492Z,2.87
2023-11-22T03:35:11.848Z,3.07
2023-11-22T03:37:40.273Z,3.47
2023-11-22T03:40:10.485Z,4.30
2023-11-22T03:42:39.919Z,3.47
2023-11-22T03:45:08.826Z,3.90
2023-11-22T03:47:39.116Z,3.33
2023-11-22T03:50:11.209Z,3.00
2023-11-22T03:52:39.407Z,2.90
2023-11-22T03:55:08.277Z,3.70
2023-11-22T03:57:36.349Z,3.47
2023-11-22T04:00:07.602Z,3.27
2023-11-22T04:02:35.793Z,2.80
2023-11-22T04:05:03.889Z,3.20
2023-11-22T04:07:33.581Z,3.50
2023-11-22T04:10:01.594Z,2.90
2023-11-22T04:12:29.744Z,3.50
2023-11-22T04:14:57.832Z,3.20
2023-11-22T04:17:26.278Z,3.20
2023-11-22T04:19:54.582Z,3.20
2023-11-22T04:22:22.801Z,3.83
2023-11-22T04:24:52.177Z,3.50
2023-11-22T04:27:20.244Z,3.90
2023-11-22T04:29:48.230Z,4.30
2023-11-22T04:32:17.234Z,3.40
2023-11-22T04:34:45.247Z,3.93
2023-11-22T04:37:13.271Z,3.67
2023-11-22T04:39:41.482Z,3.33
2023-11-22T04:42:10.877Z,3.67
2023-11-22T04:44:39.003Z,3.63
2023-11-22T04:47:07.490Z,3.90
2023-11-22T04:49:35.650Z,3.57
2023-11-22T04:52:03.683Z,3.90
2023-11-22T04:54:32.869Z,3.80
2023-11-22T04:57:00.925Z,4.10
2023-11-22T04:59:30.399Z,3.67
2023-11-22T05:01:58.428Z,3.77
2023-11-22T05:04:27.830Z,3.60
2023-11-22T05:06:56.251Z,3.60
2023-11-22T05:09:24.330Z,3.63
2023-11-22T05:11:53.118Z,3.17
2023-11-22T05:14:21.167Z,4.00
2023-11-22T05:16:50.530Z,3.83
2023-11-22T05:19:18.550Z,3.80
2023-11-22T05:21:46.598Z,3.93
2023-11-22T05:24:16.295Z,3.63
2023-11-22T05:26:44.398Z,3.73
2023-11-22T05:29:12.478Z,3.77
2023-11-22T05:31:40.573Z,4.27
2023-11-22T05:34:10.080Z,3.70
2023-11-22T05:36:39.169Z,3.70
2023-11-22T05:39:07.586Z,4.27
2023-11-22T05:41:35.617Z,3.80
2023-11-22T05:44:04.131Z,4.40
2023-11-22T05:46:32.202Z,3.90
2023-11-22T05:49:01.602Z,4.70
2023-11-22T05:51:30.998Z,4.00
2023-11-22T05:53:59.097Z,4.13
2023-11-22T05:56:27.120Z,3.83
2023-11-22T05:58:55.167Z,3.80
2023-11-22T06:01:23.298Z,4.10
2023-11-22T06:03:51.352Z,3.90
2023-11-22T06:06:22.656Z,3.83
2023-11-22T06:08:52.025Z,4.50
2023-11-22T06:11:20.650Z,4.33
2023-11-22T06:13:48.910Z,4.00
2023-11-22T06:16:16.960Z,4.10
2023-11-22T06:18:45.403Z,4.33
2023-11-22T06:21:14.513Z,3.87
2023-11-22T06:23:43.259Z,3.60
2023-11-22T06:26:12.724Z,3.87
2023-11-22T06:28:40.844Z,4.30
2023-11-22T06:31:09.199Z,3.90
2023-11-22T06:33:37.266Z,3.40
2023-11-22T06:36:05.692Z,3.07
2023-11-22T06:38:33.761Z,3.07
2023-11-22T06:41:02.051Z,2.97
2023-11-22T06:43:31.427Z,3.20
2023-11-22T06:45:59.431Z,3.43
2023-11-22T06:48:27.578Z,3.27
2023-11-22T06:50:55.654Z,3.10
2023-11-22T06:53:23.703Z,3.87
2023-11-22T06:55:51.736Z,4.10
2023-11-22T06:58:20.944Z,4.03
2023-11-22T07:00:50.611Z,3.13
2023-11-22T07:03:18.786Z,3.57
2023-11-22T07:05:47.005Z,3.60
2023-11-22T07:08:17.728Z,3.73
2023-11-22T07:10:46.453Z,3.70
2023-11-22T07:13:14.799Z,3.90
2023-11-22T07:15:42.972Z,4.50
2023-11-22T07:18:14.065Z,4.70
2023-11-22T07:20:42.270Z,4.30
2023-11-22T07:23:14.637Z,4.67
2023-11-22T07:25:43.274Z,5.20
2023-11-22T07:28:11.303Z,4.60
2023-11-22T07:30:42.268Z,4.77
2023-11-22T07:33:13.131Z,4.57
2023-11-22T07:35:41.854Z,4.83
2023-11-22T07:38:11.970Z,4.60
2023-11-22T07:40:41.072Z,4.50
2023-11-22T07:43:09.554Z,5.03
2023-11-22T07:45:38.287Z,4.57
2023-11-22T07:48:06.902Z,4.50
2023-11-22T07:50:37.153Z,5.00
2023-11-22T07:53:06.010Z,4.73
2023-11-22T07:55:36.425Z,4.90
2023-11-22T07:58:04.508Z,5.07
2023-11-22T08:00:32.864Z,4.60
2023-11-22T08:03:02.603Z,4.73
2023-11-22T08:05:35.723Z,5.50
2023-11-22T08:08:07.838Z,5.63
2023-11-22T08:10:36.401Z,5.43
2023-11-22T08:13:04.860Z,6.37
2023-11-22T08:15:33.486Z,6.80
2023-11-22T08:18:02.628Z,6.47
2023-11-22T08:20:32.111Z,6.57
2023-11-22T08:23:00.200Z,6.53
2023-11-22T08:25:30.546Z,7.17
2023-11-22T08:27:58.627Z,6.23
2023-11-22T08:30:26.646Z,6.93
2023-11-22T08:32:55.980Z,6.83
2023-11-22T08:35:24.659Z,6.80
2023-11-22T08:37:52.990Z,7.63
2023-11-22T08:40:22.419Z,7.57
2023-11-22T08:42:52.269Z,7.50
2023-11-22T08:45:20.366Z,7.13
2023-11-22T08:47:49.098Z,7.50
2023-11-22T08:50:18.186Z,7.17
2023-11-22T08:52:48.123Z,7.63
2023-11-22T08:55:16.567Z,7.10
2023-11-22T08:57:44.574Z,7.80
2023-11-22T09:00:15.950Z,7.57
2023-11-22T09:02:44.089Z,7.47
2023-11-22T09:05:13.999Z,7.70
2023-11-22T09:07:42.441Z,7.37
2023-11-22T09:10:12.455Z,7.37
2023-11-22T09:12:42.073Z,7.17
2023-11-22T09:15:13.670Z,7.30
2023-11-22T09:17:45.618Z,6.90
2023-11-22T09:20:14.554Z,7.27
2023-11-22T09:22:49.152Z,6.17
2023-11-22T09:25:20.582Z,7.57
2023-11-22T09:27:50.232Z,7.20
2023-11-22T09:30:33.138Z,6.83
2023-11-22T09:33:03.137Z,6.13
2023-11-22T09:35:32.641Z,6.93
2023-11-22T09:38:01.461Z,7.20
2023-11-22T09:40:30.104Z,7.33
2023-11-22T09:42:59.150Z,7.23
2023-11-22T09:45:27.656Z,6.73
2023-11-22T09:47:58.171Z,7.30
2023-11-22T09:50:35.270Z,7.03
2023-11-22T09:53:06.225Z,7.33
2023-11-22T09:55:34.620Z,7.50
2023-11-22T09:58:04.586Z,7.43
2023-11-22T10:00:33.915Z,7.50
2023-11-22T10:03:02.513Z,7.13
2023-11-22T10:05:32.041Z,6.83
2023-11-22T10:08:00.508Z,7.03
2023-11-22T10:10:28.607Z,7.30
2023-11-22T10:12:59.193Z,7.90
2023-11-22T10:15:30.684Z,7.30
2023-11-22T10:18:00.078Z,7.60
2023-11-22T10:20:40.378Z,7.33
2023-11-22T10:23:11.449Z,7.50
2023-11-22T10:25:45.826Z,8.10
2023-11-22T10:28:14.147Z,7.50
2023-11-22T10:30:43.267Z,7.90
2023-11-22T10:33:15.008Z,7.43
2023-11-22T10:35:46.100Z,7.77
2023-11-22T10:38:16.570Z,7.30
2023-11-22T10:40:46.127Z,8.23
2023-11-22T10:43:14.890Z,8.37
2023-11-22T10:45:47.278Z,7.33
2023-11-22T10:48:18.180Z,7.80
2023-11-22T10:50:50.122Z,7.53
2023-11-22T10:53:23.504Z,7.33
2023-11-22T10:55:55.603Z,7.00
2023-11-22T10:58:24.345Z,7.20
2023-11-22T11:00:52.374Z,7.40
2023-11-22T11:03:22.319Z,6.70
2023-11-22T11:05:56.555Z,6.77
2023-11-22T11:08:28.461Z,6.20
2023-11-22T11:10:57.466Z,6.17
2023-11-22T11:13:25.783Z,5.60
2023-11-22T11:15:55.789Z,5.77
2023-11-22T11:18:24.164Z,5.07
2023-11-22T11:20:54.996Z,4.90
2023-11-22T11:23:25.715Z,4.90
2023-11-22T11:25:56.301Z,4.50
2023-11-22T11:28:26.835Z,4.83
2023-11-22T11:30:55.528Z,4.57
2023-11-22T11:33:30.206Z,4.90
2023-11-22T11:36:01.609Z,4.13
2023-11-22T11:38:34.701Z,4.40
2023-11-22T11:41:11.354Z,4.10
2023-11-22T11:43:43.072Z,4.03
2023-11-22T11:46:12.947Z,4.00
2023-11-22T11:48:44.922Z,3.80
2023-11-22T11:51:17.584Z,4.00
2023-11-22T11:53:47.257Z,3.47
2023-11-22T11:56:15.886Z,3.63
2023-11-22T11:58:45.078Z,3.47
2023-11-22T12:01:14.661Z,3.70
2023-11-22T12:03:42.747Z,3.50
2023-11-22T12:06:11.060Z,3.33
2023-11-22T12:08:40.498Z,3.90
2023-11-22T12:11:09.496Z,3.33
2023-11-22T12:13:39.394Z,3.07
2023-11-22T12:16:12.017Z,3.53
2023-11-22T12:18:44.356Z,3.47
2023-11-22T12:21:14.100Z,3.13
2023-11-22T12:23:44.193Z,3.13
2023-11-22T12:26:14.376Z,3.50
2023-11-22T12:28:50.419Z,2.87
2023-11-22T12:31:25.868Z,3.60
2023-11-22T12:33:54.208Z,3.17
2023-11-22T12:36:22.840Z,3.23
2023-11-22T12:38:52.294Z,2.93
2023-11-22T12:41:21.807Z,2.80
2023-11-22T12:44:05.234Z,3.40
2023-11-22T12:46:47.928Z,2.70
2023-11-22T12:49:16.862Z,2.83
2023-11-22T12:51:49.384Z,2.70
2023-11-22T12:54:21.189Z,2.73
2023-11-22T12:56:51.461Z,2.30
2023-11-22T12:59:19.842Z,2.30
2023-11-22T13:01:48.144Z,2.37
2023-11-22T13:04:17.163Z,2.70
2023-11-22T13:06:45.812Z,2.40
2023-11-22T13:09:16.653Z,2.17
2023-11-22T13:11:46.939Z,2.53
2023-11-22T13:14:16.080Z,2.37
2023-11-22T13:16:44.248Z,2.40
2023-11-22T13:19:12.294Z,2.43
2023-11-22T13:21:42.073Z,2.50
2023-11-22T13:24:10.638Z,2.53
2023-11-22T13:26:38.980Z,2.93
2023-11-22T13:29:08.401Z,2.77
2023-11-22T13:31:36.457Z,2.63
2023-11-22T13:34:04.527Z,2.40
2023-11-22T13:36:33.257Z,2.50
2023-11-22T13:39:01.317Z,2.53
2023-11-22T13:41:29.394Z,2.67
2023-11-22T13:43:57.439Z,2.80
2023-11-22T13:46:27.436Z,2.90
2023-11-22T13:48:55.474Z,2.40
2023-11-22T13:51:26.025Z,2.70
2023-11-22T13:53:54.688Z,2.43
2023-11-22T13:56:23.142Z,2.63
2023-11-22T13:58:51.217Z,2.50
2023-11-22T14:01:23.243Z,2.90
2023-11-22T14:03:53.707Z,2.67
2023-11-22T14:06:21.917Z,2.43
2023-11-22T14:08:50.025Z,2.43
2023-11-22T14:11:18.253Z,2.80
2023-11-22T14:13:46.403Z,2.53
2023-11-22T14:16:16.233Z,2.50
2023-11-22T14:18:44.398Z,2.20
2023-11-22T14:21:13.793Z,2.23
2023-11-22T14:23:41.828Z,2.50
2023-11-22T14:26:09.933Z,2.50
2023-11-22T14:28:37.931Z,2.57
2023-11-22T14:31:07.852Z,2.17
2023-11-22T14:33:36.666Z,2.40
2023-11-22T14:36:05.364Z,2.40
2023-11-22T14:38:34.874Z,2.27
2023-11-22T14:41:04.688Z,2.30
2023-11-22T14:43:33.355Z,2.40
2023-11-22T14:46:02.348Z,2.40
2023-11-22T14:48:30.483Z,2.20
2023-11-22T14:50:58.563Z,2.40
2023-11-22T14:53:26.840Z,2.70
2023-11-22T14:55:56.244Z,2.00
2023-11-22T14:58:24.388Z,2.60
2023-11-22T15:00:52.393Z,2.43
2023-11-22T15:03:21.335Z,2.20
2023-11-22T15:05:49.501Z,2.27
2023-11-22T15:08:17.683Z,2.53
2023-11-22T15:10:45.745Z,2.20
2023-11-22T15:13:18.192Z,2.40
2023-11-22T15:15:47.064Z,2.57
2023-11-22T15:18:15.433Z,2.40
2023-11-22T15:20:43.742Z,2.20
2023-11-22T15:23:13.254Z,2.50
2023-11-22T15:25:42.766Z,2.30
2023-11-22T15:28:10.826Z,2.50
2023-11-22T15:30:40.351Z,2.10
2023-11-22T15:33:08.688Z,2.60
2023-11-22T15:35:36.881Z,2.17
2023-11-22T15:38:05.310Z,2.53
2023-11-22T15:40:33.403Z,2.07
2023-11-22T15:43:01.519Z,2.50
2023-11-22T15:45:30.576Z,2.43
2023-11-22T15:48:00.524Z,2.30
2023-11-22T15:50:28.672Z,2.47
2023-11-22T15:52:56.831Z,2.30
2023-11-22T15:55:26.528Z,2.20
2023-11-22T15:57:54.633Z,2.07
2023-11-22T16:00:23.217Z,2.27
2023-11-22T16:02:51.380Z,2.00
2023-11-22T16:05:21.023Z,2.20
2023-11-22T16:07:49.042Z,2.10
2023-11-22T16:10:18.250Z,2.30
2023-11-22T16:12:46.270Z,2.33
2023-11-22T16:15:15.972Z,2.50
2023-11-22T16:17:44.446Z,2.33
2023-11-22T16:20:15.089Z,2.77
2023-11-22T16:22:46.485Z,2.40
2023-11-22T16:25:15.266Z,2.10
2023-11-22T16:27:43.577Z,2.47
2023-11-22T16:30:11.945Z,2.10
2023-11-22T16:32:40.662Z,2.60
2023-11-22T16:35:09.830Z,2.60
2023-11-22T16:37:39.759Z,2.57
2023-11-22T16:40:10.940Z,2.47
2023-11-22T16:42:39.100Z,2.70
2023-11-22T16:45:08.234Z,2.43
2023-11-22T16:47:38.043Z,2.30
2023-11-22T16:50:09.131Z,2.50
2023-11-22T16:52:37.578Z,2.57
2023-11-22T16:55:07.966Z,2.90
2023-11-22T16:57:38.172Z,2.77
2023-11-22T17:00:10.622Z,3.03
2023-11-22T17:02:38.895Z,3.10
2023-11-22T17:05:08.371Z,2.47
2023-11-22T17:07:36.506Z,3.00
2023-11-22T17:10:06.317Z,2.80
2023-11-22T17:12:34.354Z,2.77
2023-11-22T17:15:05.945Z,3.10
2023-11-22T17:17:34.623Z,2.83
2023-11-22T17:20:05.418Z,3.13
2023-11-22T17:22:33.539Z,2.90
2023-11-22T17:25:03.574Z,2.93
2023-11-22T17:27:36.718Z,3.80
2023-11-22T17:30:13.198Z,3.20
2023-11-22T17:32:41.311Z,3.40
2023-11-22T17:35:09.766Z,3.60
2023-11-22T17:37:37.821Z,3.40
2023-11-22T17:40:06.877Z,3.63
2023-11-22T17:42:34.999Z,3.40
2023-11-22T17:45:03.209Z,3.80
2023-11-22T17:47:33.751Z,3.60
2023-11-22T17:50:04.477Z,3.80
2023-11-22T17:52:32.760Z,3.90
2023-11-22T17:55:00.924Z,4.20
2023-11-22T17:57:29.070Z,4.13
2023-11-22T17:59:57.628Z,4.10
2023-11-22T18:02:25.738Z,4.27
2023-11-22T18:04:55.529Z,4.10
2023-11-22T18:07:25.143Z,4.00
2023-11-22T18:09:53.432Z,4.30
2023-11-22T18:12:21.479Z,3.87
2023-11-22T18:14:49.603Z,4.23
2023-11-22T18:17:17.625Z,4.73
2023-11-22T18:19:46.227Z,4.70
2023-11-22T18:22:15.616Z,4.47
2023-11-22T18:24:43.636Z,4.53
2023-11-22T18:27:11.667Z,4.07
2023-11-22T18:29:39.714Z,4.67
2023-11-22T18:32:10.162Z,4.67
2023-11-22T18:34:38.466Z,4.63
2023-11-22T18:37:07.413Z,4.93
2023-11-22T18:39:36.843Z,4.77
2023-11-22T18:42:06.218Z,4.60
2023-11-22T18:44:37.692Z,4.50
2023-11-22T18:47:06.452Z,4.10
2023-11-22T18:49:34.484Z,4.77
2023-11-22T18:52:02.885Z,4.77
2023-11-22T18:54:31.434Z,5.00
2023-11-22T18:57:01.574Z,4.37
2023-11-22T18:59:29.694Z,5.07
2023-11-22T19:01:59.354Z,4.67
2023-11-22T19:04:28.169Z,4.23
2023-11-22T19:06:56.186Z,4.50
2023-11-22T19:09:24.212Z,4.50
2023-11-22T19:11:52.263Z,4.43
2023-11-22T19:14:22.694Z,5.00
2023-11-22T19:16:50.715Z,5.00
2023-11-22T19:19:18.734Z,4.90
2023-11-22T19:21:46.787Z,4.90
2023-11-22T19:24:15.011Z,4.70
2023-11-22T19:26:45.195Z,4.70
2023-11-22T19:29:13.887Z,4.70
2023-11-22T19:31:46.054Z,4.90
2023-11-22T19:34:15.822Z,4.57
2023-11-22T19:36:43.897Z,4.53
2023-11-22T19:39:13.000Z,4.77
2023-11-22T19:41:41.566Z,4.83
2023-11-22T19:44:09.661Z,5.20
2023-11-22T19:46:38.937Z,4.90
2023-11-22T19:49:12.208Z,4.93
2023-11-22T19:51:40.896Z,5.23
2023-11-22T19:54:25.518Z,4.30
2023-11-22T19:56:53.772Z,5.37
2023-11-22T19:59:21.910Z,4.90
2023-11-22T20:01:50.592Z,5.40
2023-11-22T20:04:18.944Z,5.23
2023-11-22T20:06:48.180Z,4.87
2023-11-22T20:09:16.253Z,5.03
2023-11-22T20:11:46.379Z,5.60
2023-11-22T20:14:14.796Z,5.43
2023-11-22T20:16:42.796Z,5.37
2023-11-22T20:19:10.873Z,4.53
2023-11-22T20:21:43.360Z,5.17
2023-11-22T20:24:11.920Z,5.40
2023-11-22T20:26:40.014Z,5.50
2023-11-22T20:29:09.751Z,6.00
2023-11-22T20:31:38.803Z,6.20
2023-11-22T20:34:07.083Z,5.43
2023-11-22T20:36:38.076Z,5.30
2023-11-22T20:39:06.476Z,5.70
2023-11-22T20:41:34.573Z,5.93
2023-11-22T20:44:02.626Z,5.93
2023-11-22T20:46:32.010Z,5.90
2023-11-22T20:49:01.169Z,6.70
2023-11-22T20:51:29.189Z,6.53
2023-11-22T20:53:58.052Z,7.30
2023-11-22T20:56:26.094Z,7.17
2023-11-22T20:58:54.116Z,7.33
2023-11-22T21:01:22.440Z,7.30
2023-11-22T21:03:51.981Z,7.13
2023-11-22T21:06:21.076Z,7.67
2023-11-22T21:08:49.853Z,7.90
2023-11-22T21:11:19.776Z,7.47
2023-11-22T21:13:47.980Z,7.93
2023-11-22T21:16:21.903Z,8.00
2023-11-22T21:18:52.415Z,7.93
2023-11-22T21:21:20.479Z,8.57
2023-11-22T21:23:56.200Z,8.80
2023-11-22T21:26:24.407Z,8.67
2023-11-22T21:28:52.563Z,8.67
2023-11-22T21:31:22.201Z,8.73
2023-11-22T21:33:52.022Z,8.73
2023-11-22T21:36:20.521Z,9.73
2023-11-22T21:38:48.655Z,9.70
2023-11-22T21:41:16.766Z,9.67
2023-11-22T21:43:44.845Z,10.70
2023-11-22T21:46:17.532Z,10.10
2023-11-22T21:48:45.887Z,11.07
2023-11-22T21:51:15.462Z,11.03
2023-11-22T21:53:43.604Z,10.90
2023-11-22T21:56:11.654Z,11.00
2023-11-22T21:58:39.730Z,12.00
2023-11-22T22:01:13.072Z,12.63
2023-11-22T22:03:41.654Z,12.33
2023-11-22T22:06:10.264Z,12.97
2023-11-22T22:08:42.512Z,13.27
2023-11-22T22:11:10.795Z,13.20
2023-11-22T22:13:38.938Z,13.73
2023-11-22T22:16:10.477Z,14.50
2023-11-22T22:18:39.192Z,14.93
2023-11-22T22:21:07.955Z,15.93
2023-11-22T22:23:37.143Z,16.60
2023-11-22T22:26:06.693Z,17.10
2023-11-22T22:28:34.742Z,16.47
2023-11-22T22:31:04.323Z,17.83
2023-11-22T22:33:32.458Z,16.83
2023-11-22T22:36:00.867Z,18.70
2023-11-22T22:38:28.976Z,18.87
2023-11-22T22:40:57.018Z,18.87
2023-11-22T22:43:26.429Z,19.87
2023-11-22T22:45:54.443Z,19.47
2023-11-22T22:48:23.302Z,18.80
2023-11-22T22:50:51.882Z,20.30
2023-11-22T22:53:20.353Z,20.00
2023-11-22T22:55:48.444Z,18.97
2023-11-22T22:58:16.498Z,20.80
2023-11-22T23:00:47.528Z,19.37
2023-11-22T23:03:16.303Z,18.70
2023-11-22T23:05:44.611Z,18.93
2023-11-22T23:08:12.618Z,19.00
2023-11-22T23:10:41.613Z,21.03
2023-11-22T23:13:09.616Z,19.37
2023-11-22T23:15:38.786Z,20.40
2023-11-22T23:18:08.424Z,20.60
2023-11-22T23:20:46.391Z,21.63
2023-11-22T23:23:18.815Z,22.33
2023-11-22T23:25:47.389Z,22.23
2023-11-22T23:28:15.915Z,23.10
2023-11-22T23:30:44.411Z,22.50
2023-11-22T23:33:14.145Z,22.90
2023-11-22T23:35:43.246Z,22.03
2023-11-22T23:38:11.863Z,24.37
2023-11-22T23:40:40.131Z,24.80
2023-11-22T23:43:09.341Z,23.30
2023-11-22T23:45:38.401Z,25.67
2023-11-22T23:48:07.172Z,24.33
2023-11-22T23:50:39.322Z,23.67
2023-11-22T23:53:08.007Z,23.10
2023-11-22T23:55:36.234Z,23.87
2023-11-22T23:58:04.341Z,24.80
